Tiempo atmosférico en la estación meteorológica de Valle de Hecho, Hecho, Huesca (855 m.)



Fecha
DESCASC
Temp. máxima en grados centígrados (hora)
DESCASC
Temp. mínima en grados centígrados (hora)
DESCASC
Temp. media en grados centígrados
DESCASC
Racha de viento máxima en m/sg (hora)
DESCASC
Velocidad máxima media en intervalos de 10 minutos(hora)
DESCASC
Precipitaciones diarias en mm
DESCASC
Precipitaciones de 00:00 a 06:00 en mm
DESCASC
Precipitaciones de 06:00 a 12:00 en mm
DESCASC
Precipitaciones de 12:00 a 18:00 en mm
DESCASC
Precipitaciones de 18:00 a 24:00 en mm
DESCASC
13-02-2020 12 (17:00) 5.7 (23:40) 8.8 3.89 (16:20) 2.22 (20:10) 0 0 0 0 0
12-02-2020 14.8 (15:10) 4.3 (08:40) 9.6 5.28 (15:50) 2.78 (15:50) 0 0 0 0 0
11-02-2020 14.4 (14:30) 2.1 (07:00) 8.2 12.5 (15:10) 6.39 (15:10) 0 0 0 0 0
10-02-2020 17 (14:20) 4.9 (00:00) 11 7.22 (15:00) 4.17 (15:20) 0 0 0 0 0
09-02-2020 13.4 (14:20) 1.9 (00:00) 7.6 6.11 (12:10) 3.33 (15:30) 0 0 0 0 0
08-02-2020 12.6 (13:40) -2.6 (-00:0) 5 6.94 (13:10) 3.89 (13:10) 0 0 0 0 0
07-02-2020 14.2 (14:40) -2.4 (-00:0) 5.9 4.44 (14:40) 2.5 (15:40) 0 0 0 0 0
06-02-2020 15 (13:30) -4 (-00:0) 5.5 10.56 (13:50) 6.39 (13:50) 0 0 0 0 0
05-02-2020 13.8 (15:50) -3.5 (-00:0) 5.2 18.06 (00:30) 8.61 (01:00) 0 0 0 0 0
04-02-2020 13.7 (10:30) 4 (00:00) 8.8 21.11 (22:30) 12.22 (16:50) 0 0 0 0 0
03-02-2020 19.7 (15:50) 1.9 (08:20) 10.8 3.61 (14:10) 1.94 (14:20) 0 0 0 0 0
02-02-2020 18.8 (16:10) 5.8 (00:00) 12.3 5.56 (07:30) 2.78 (07:10) 0 0 0 0 0
01-02-2020 16.5 (15:30) 2.9 (00:00) 9.7 6.67 (14:20) 3.89 (13:10) 7.4 4.4 3 0 0
31-01-2020 16.3 (14:30) 3.6 (00:00) 9.9 5.83 (14:20) 2.78 (14:20) 0.2 0 0.2 0 0
30-01-2020 11.1 (16:40) 7.1 (00:00) 9.1 3.06 (13:50) 1.67 (10:20) 10.8 7.8 2.8 0 0.2
29-01-2020 9.9 (17:10) -1.6 (-00:0) 4.1 3.33 (03:30) 1.94 (15:10) 4.6 0 0 0 4.6
28-01-2020 11.4 (16:20) -0.6 (-00:0) 5.4 6.67 (12:50) 3.61 (14:40) 1.2 1.2 0 0 0
27-01-2020 7 (15:20) -2.6 (-00:0) 2.2 5 (17:00) 3.06 (17:00) 2.4 0 0 2 0.4
26-01-2020 8.7 (16:20) -0.7 (-00:0) 4 4.72 (17:50) 2.5 (17:50) 0.6 0.6 0 0 0
25-01-2020 8.4 (13:00) 3 (00:00) 5.7 10 (13:30) 6.11 (13:30) 1 0 0 0.4 0.6
24-01-2020 10.2 (13:00) 1.1 (00:00) 5.6 7.5 (13:00) 4.17 (12:50) 0 0 0 0 0
23-01-2020 4.5 (13:20) 0.4 (00:00) 2.5 6.11 (16:40) 3.61 (16:40) 22.4 9.8 8.8 3.8 0
22-01-2020 11.7 (14:10) -1.2 (-00:0) 5.2 8.89 (14:30) 5.28 (14:30) 11 0 0 0.8 10.2
21-01-2020 3.8 (16:00) -3.5 (-00:0) 0.1 3.89 (11:40) 1.94 (06:20) 0 0 0 0 0
20-01-2020 4.6 (14:40) -3.4 (-00:0) 0.6 18.61 (06:50) 9.44 (06:40) 0 0 0 0 0
19-01-2020 6.7 (11:20) 1 (00:00) 3.8 24.44 (14:00) 12.78 (15:00) 4.2 4 0 0.2 0
18-01-2020 9.2 (14:50) -1.4 (-00:0) 3.9 11.11 (00:10) 4.72 (14:50) 12 0 0 0 12

Gráficas

Temp. máximas Temp. mínimas Temp. medias Precipitaciones Rachas de viento máximas Velocidades máximas media en intervalos de 10 minutos

Datos horarios

Fecha y hora oficial Temperatura (ºC) Velocidad del viento (km/h) Dirección del viento Racha (km/h) Dirección de racha Precipitación (mm) Presión (hPa) Tendencia (hPa) Humedad (%)
2020-02-16 23:00:00 5.5 4 Oeste 6 Sudoeste 0 -- -- 85
2020-02-16 22:00:00 6.5 0 Calma 6 Sudoeste 0 -- -- 82
2020-02-16 21:00:00 7.9 0 Calma 6 Sudoeste 0 -- -- 76
2020-02-16 20:00:00 10.2 2 Oeste 8 Este 0 -- -- 68
2020-02-16 19:00:00 13.3 2 Sur 12 Sudoeste 0 -- -- 57
2020-02-16 18:00:00 15.8 5 Sudoeste 20 Sudoeste 0 -- -- 50
2020-02-16 17:00:00 18.7 11 Sudoeste 27 Sudoeste 0 -- -- 43
2020-02-16 16:00:00 19.3 14 Sudoeste 26 Sudoeste 0 -- -- 40
2020-02-16 15:00:00 19 12 Sudoeste 25 Sur 0 -- -- 38
2020-02-16 14:00:00 18.2 14 Sudoeste 25 Sudoeste 0 -- -- 41
2020-02-16 13:00:00 14.1 4 Nordeste 8 Nordeste 0 -- -- 54
2020-02-16 12:00:00 11.2 3 Nordeste 9 Nordeste 0 -- -- 63
2020-02-16 11:00:00 8.2 2 Este 5 Sudoeste 0 -- -- 77
2020-02-16 10:00:00 4.7 0 Calma 9 Nordeste 0 -- -- 86
2020-02-16 09:00:00 1.8 2 Norte 8 Sudoeste 0 -- -- 92
2020-02-16 08:00:00 1.1 3 Nordeste 8 Sudoeste 0 -- -- 92
2020-02-16 07:00:00 0.9 3 Sur 8 Oeste 0 -- -- 93
2020-02-16 06:00:00 1.4 3 Noroeste 12 Nordeste 0 -- -- 91
2020-02-16 05:00:00 1.3 3 Nordeste 9 Oeste 0 -- -- 91
2020-02-16 04:00:00 1.6 3 Sudoeste 5 Sudoeste 0 -- -- 90
2020-02-16 03:00:00 2 3 Norte 5 Sur 0 -- -- 90
2020-02-16 02:00:00 2.8 0 Calma 4 Sudoeste 0 -- -- 88
2020-02-16 01:00:00 3.1 0 Calma 6 Sudoeste 0 -- -- 88
2020-02-16 00:00:00 4.1 0 Calma 5 Este 0 -- -- 85
2020-02-15 23:00:00 5.3 0 Calma 6 Nordeste 0 -- -- 81
2020-02-15 22:00:00 6.4 0 Calma 6 Noroeste 0 -- -- 81
2020-02-15 21:00:00 7.9 2 Este 6 Sudeste 0 -- -- 77
2020-02-15 20:00:00 9.9 3 Sur 5 Sudeste 0 -- -- 71
2020-02-15 19:00:00 12 4 Nordeste 11 Oeste 0 -- -- 61
2020-02-15 18:00:00 14 7 Sudoeste 12 Sudoeste 0 -- -- 53
2020-02-15 17:00:00 15.7 5 Sudoeste 23 Sudoeste 0 -- -- 48
2020-02-15 16:00:00 17.4 12 Sudoeste 26 Sudoeste 0 -- -- 45
2020-02-15 15:00:00 17.7 15 Sudoeste 25 Sur 0 -- -- 45
2020-02-15 14:00:00 17.3 12 Sudoeste 24 Sudoeste 0 -- -- 47
2020-02-15 13:00:00 16.7 10 Sudoeste 20 Sudoeste 0 -- -- 49
2020-02-15 12:00:00 13.4 4 Sur 8 Sudoeste 0 -- -- 58
2020-02-15 11:00:00 8.7 2 Sudeste 8 Nordeste 0 -- -- 76
2020-02-15 10:00:00 4.3 0 Calma 5 Este 0 -- -- 93
2020-02-15 09:00:00 0.4 4 Norte 6 Este 0 -- -- 95
2020-02-15 08:00:00 0.2 0 Calma 5 Noroeste 0 -- -- 95
2020-02-15 07:00:00 0 3 Norte 5 Noroeste 0 -- -- 95
2020-02-15 06:00:00 0.3 0 Calma 4 Este 0 -- -- 93
2020-02-15 05:00:00 0.5 0 Calma 4 Sudoeste 0 -- -- 94
2020-02-15 04:00:00 0.8 0 Calma 3 Este 0 -- -- 93
2020-02-15 03:00:00 1.4 0 Calma 5 Nordeste 0 -- -- 93
2020-02-15 02:00:00 1.9 0 Calma 4 Nordeste 0 -- -- 93
2020-02-15 01:00:00 2.2 2 Norte 4 Nordeste 0 -- -- 91
2020-02-15 00:00:00 3 0 Calma 5 Oeste 0 -- -- 90
2020-02-14 23:00:00 3.7 2 Sudoeste 4 Sur 0 -- -- 87
2020-02-14 22:00:00 4.8 2 Sur 6 Oeste 0 -- -- 84
2020-02-14 21:00:00 6.2 0 Calma 4 Noroeste 0 -- -- 80
2020-02-14 20:00:00 7.9 0 Calma 6 Norte 0 -- -- 75
2020-02-14 19:00:00 10.1 4 Nordeste 7 Oeste 0 -- -- 66
2020-02-14 18:00:00 12.8 4 Sudoeste 12 Sudoeste 0 -- -- 56
2020-02-14 17:00:00 16.1 5 Sudoeste 13 Sudoeste 0 -- -- 46
2020-02-14 16:00:00 16.2 6 Sur 14 Sur 0 -- -- 45
2020-02-14 15:00:00 16.1 9 Sudoeste 17 Sudoeste 0 -- -- 45
2020-02-14 14:00:00 15.5 7 Sur 18 Sudeste 0 -- -- 46
2020-02-14 13:00:00 14.1 6 Sudeste 17 Sudoeste 0 -- -- 46
2020-02-14 12:00:00 12.7 6 Sur 13 Sudeste 0 -- -- 53
2020-02-14 11:00:00 9.7 3 Sur 6 Sudeste 0 -- -- 68
2020-02-14 10:00:00 5.5 2 Este 7 Nordeste 0 -- -- 83
2020-02-14 09:00:00 2 2 Oeste 9 Nordeste 0 -- -- 95
2020-02-14 08:00:00 1.8 4 Nordeste 9 Nordeste 0 -- -- 89
2020-02-14 07:00:00 3.1 3 Sudoeste 15 Sudoeste 0 -- -- 88
2020-02-14 06:00:00 4.3 8 Sudoeste 15 Sudoeste 0 -- -- 85
2020-02-14 05:00:00 7.1 4 Sur 26 Noroeste 0 -- -- 72
2020-02-14 04:00:00 10.1 12 Norte 31 Noroeste 0 -- -- 59
2020-02-14 03:00:00 9.9 12 Norte 31 Nordeste 0 -- -- 63
2020-02-14 02:00:00 7.2 8 Oeste 13 Noroeste 0 -- -- 77
2020-02-14 01:00:00 6.6 2 Noroeste 10 Oeste 0 -- -- 83
2020-02-14 00:00:00 6 5 Oeste 14 Noroeste 0 -- -- 89
2020-02-13 23:00:00 6.3 2 Nordeste 6 Sudoeste 0 -- -- 86
2020-02-13 22:00:00 6.9 2 Norte 9 Norte 0 -- -- 86
2020-02-13 21:00:00 8.3 5 Norte 10 Norte 0 -- -- 80
2020-02-13 20:00:00 8.8 4 Nordeste 13 Norte 0 -- -- 81
2020-02-13 19:00:00 10.3 4 Norte 9 Noroeste 0 -- -- 76
2020-02-13 18:00:00 11.1 6 Noroeste 13 Oeste 0 -- -- 72
2020-02-13 17:00:00 12 5 Oeste 14 Oeste 0 -- -- 68
2020-02-13 16:00:00 11.7 3 Nordeste 9 Este 0 -- -- 69
2020-02-13 15:00:00 11.2 4 Este 8 Este 0 -- -- 72
2020-02-13 14:00:00 10.7 4 Sudoeste 6 Oeste 0 -- -- 77
2020-02-13 13:00:00 10 3 Noroeste 8 Sudeste 0 -- -- 80
2020-02-13 12:00:00 8.5 2 Sudoeste 5 Nordeste 0 -- -- 85
2020-02-13 11:00:00 7.9 3 Nordeste 7 Noroeste 0 -- -- 88
2020-02-13 10:00:00 7 3 Noroeste 6 Oeste 0 -- -- 90
2020-02-13 09:00:00 6.4 2 Norte 9 Oeste 0 -- -- 92
2020-02-13 08:00:00 6.1 3 Nordeste 6 Nordeste 0 -- -- 92
2020-02-13 07:00:00 6 0 Calma 10 Noroeste 0 -- -- 91
2020-02-13 06:00:00 6.7 2 Nordeste 5 Noroeste 0 -- -- 89
2020-02-13 05:00:00 7 0 Calma 6 Oeste 0 -- -- 87
2020-02-13 04:00:00 7.4 2 Sudoeste 6 Nordeste 0 -- -- 86
2020-02-13 03:00:00 7.2 0 Calma 6 Noroeste 0 -- -- 86
2020-02-13 02:00:00 7.4 2 Sudoeste 6 Noroeste 0 -- -- 85
2020-02-13 01:00:00 7.5 3 Oeste 7 Sudoeste 0 -- -- 84
2020-02-13 00:00:00 7.5 0 Calma 5 Este 0 -- -- 83
2020-02-12 23:00:00 7.7 3 Norte 6 Oeste 0 -- -- 82
2020-02-12 22:00:00 7.6 2 Nordeste 6 Noroeste 0 -- -- 81
2020-02-12 21:00:00 7.8 2 Sudoeste 4 Oeste 0 -- -- 80
2020-02-12 20:00:00 8.2 0 Calma 4 Nordeste 0 -- -- 77
2020-02-12 19:00:00 9.7 0 Calma 12 Sudoeste 0 -- -- 69
2020-02-12 18:00:00 11.9 6 Sudoeste 17 Sudoeste 0 -- -- 61
2020-02-12 17:00:00 14 8 Sudoeste 18 Sudoeste 0 -- -- 51
2020-02-12 16:00:00 14.6 9 Sur 19 Sudoeste 0 -- -- 41
2020-02-12 15:00:00 14.6 6 Sur 15 Sudoeste 0 -- -- 43
2020-02-12 14:00:00 14.2 5 Sur 14 Sudoeste 0 -- -- 48
2020-02-12 13:00:00 13.1 5 Sur 13 Sudoeste 0 -- -- 53
2020-02-12 12:00:00 11.3 4 Sur 9 Sur 0 -- -- 60
2020-02-12 11:00:00 8.6 2 Sur 5 Sudeste 0 -- -- 71
2020-02-12 10:00:00 5.9 2 Este 5 Sur 0 -- -- 81
2020-02-12 09:00:00 4.4 0 Calma 4 Noroeste 0 -- -- 85
2020-02-12 08:00:00 5.2 2 Sudoeste 8 Oeste 0 -- -- 81
2020-02-12 07:00:00 6.3 4 Oeste 12 Sudoeste 0 -- -- 79
2020-02-12 06:00:00 6.5 5 Sur 11 Sudoeste 0 -- -- 78
2020-02-12 05:00:00 6.8 3 Sudoeste 11 Oeste 0 -- -- 77
2020-02-12 04:00:00 7 2 Nordeste 6 Noroeste 0 -- -- 75
2020-02-12 03:00:00 7.2 2 Nordeste 5 Nordeste 0 -- -- 74
2020-02-12 02:00:00 7.4 3 Sudeste 9 Oeste 0 -- -- 75
2020-02-12 01:00:00 7.8 6 Sur 13 Sudoeste 0 -- -- 72
2020-02-12 00:00:00 9 3 Sudeste 28 Oeste 0 -- -- 61
2020-02-11 23:00:00 10.4 9 Noroeste 30 Noroeste 0 -- -- 50
2020-02-11 22:00:00 9.4 14 Noroeste 32 Oeste 0 -- -- 63
2020-02-11 21:00:00 9 21 Noroeste 30 Oeste 0 -- -- 68
2020-02-11 20:00:00 9.2 18 Noroeste 26 Noroeste 0 -- -- 65
2020-02-11 19:00:00 9.6 12 Noroeste 28 Noroeste 0 -- -- 57
2020-02-11 18:00:00 10.7 17 Noroeste 29 Noroeste 0 -- -- 56
2020-02-11 17:00:00 11.6 14 Noroeste 28 Noroeste 0 -- -- 54
2020-02-11 16:00:00 13.2 21 Noroeste 45 Noroeste 0 -- -- 50
2020-02-11 15:00:00 13.6 17 Noroeste 31 Noroeste 0 -- -- 51
2020-02-11 14:00:00 13.5 17 Noroeste 40 Noroeste 0 -- -- 55
2020-02-11 13:00:00 13.3 13 Noroeste 28 Noroeste 0 -- -- 57
2020-02-11 12:00:00 13.1 12 Noroeste 33 Noroeste 0 -- -- 59
2020-02-11 11:00:00 13.2 10 Noroeste 41 Nordeste 0 -- -- 59
2020-02-11 10:00:00 11.7 19 Noroeste 35 Noroeste 0 -- -- 70
2020-02-11 09:00:00 5.8 6 Nordeste 15 Nordeste 0 -- -- 94
2020-02-11 08:00:00 3.3 6 Nordeste 20 Nordeste 0 -- -- 96
2020-02-11 07:00:00 2.1 3 Noroeste 9 Norte 0 -- -- 94
2020-02-11 06:00:00 2.3 2 Norte 9 Oeste 0 -- -- 94
2020-02-11 05:00:00 2.4 5 Nordeste 11 Noroeste 0 -- -- 96
2020-02-11 04:00:00 2.5 3 Norte 9 Nordeste 0 -- -- 93
2020-02-11 03:00:00 3.3 4 Oeste 9 Sudoeste 0 -- -- 93
2020-02-11 02:00:00 3.7 2 Noroeste 8 Sudoeste 0 -- -- 92
2020-02-11 01:00:00 4 3 Oeste 10 Nordeste 0 -- -- 91
2020-02-11 00:00:00 4.9 3 Sudoeste 8 Sudoeste 0 -- -- 89
2020-02-10 23:00:00 5.8 3 Noroeste 7 Noroeste 0 -- -- 84
2020-02-10 22:00:00 6.8 2 Nordeste 7 Nordeste 0 -- -- 79
2020-02-10 21:00:00 7.9 3 Norte 11 Nordeste 0 -- -- 77
2020-02-10 20:00:00 9.9 4 Nordeste 12 Nordeste 0 -- -- 68
2020-02-10 19:00:00 12.1 3 Nordeste 18 Oeste 0 -- -- 68
2020-02-10 18:00:00 14.1 10 Noroeste 20 Sudoeste 0 -- -- 60
2020-02-10 17:00:00 16.3 9 Oeste 20 Oeste 0 -- -- 52
2020-02-10 16:00:00 16.9 9 Oeste 26 Oeste 0 -- -- 50
2020-02-10 15:00:00 16.7 14 Oeste 26 Oeste 0 -- -- 53
2020-02-10 14:00:00 16.7 9 Sur 19 Sudoeste 0 -- -- 57
2020-02-10 13:00:00 16.2 5 Sudoeste 21 Sudoeste 0 -- -- 61
2020-02-10 12:00:00 15 6 Sudoeste 19 Sudoeste 0 -- -- 63
2020-02-10 11:00:00 13 4 Este 13 Norte 0 -- -- 69
2020-02-10 10:00:00 10.8 8 Norte 18 Norte 0 -- -- 75
2020-02-10 09:00:00 8.2 8 Nordeste 15 Norte 0 -- -- 85
2020-02-10 08:00:00 9 8 Norte 13 Norte 0 -- -- 82
2020-02-10 07:00:00 9.2 3 Nordeste 15 Oeste 0 -- -- 82
2020-02-10 06:00:00 10.4 14 Oeste 24 Oeste 0 -- -- 78
2020-02-10 05:00:00 8.6 4 Este 12 Norte 0 -- -- 82
2020-02-10 04:00:00 8.6 10 Norte 15 Norte 0 -- -- 82
2020-02-10 03:00:00 7.5 2 Norte 4 Nordeste 0 -- -- 86
2020-02-10 02:00:00 7.5 0 Calma 5 Este 0 -- -- 85
2020-02-10 01:00:00 7.7 0 Calma 6 Norte 0 -- -- 84
2020-02-10 00:00:00 7.9 0 Calma 4 Nordeste 0 -- -- 83
2020-02-09 23:00:00 8.1 0 Calma 5 Sur 0 -- -- 80
2020-02-09 22:00:00 8.3 3 Nordeste 8 Noroeste 0 -- -- 79
2020-02-09 21:00:00 8.8 0 Calma 4 Noroeste 0 -- -- 77
2020-02-09 20:00:00 9.3 0 Calma 6 Noroeste 0 -- -- 73
2020-02-09 19:00:00 9.9 3 Sudoeste 8 Sudoeste 0 -- -- 69
2020-02-09 18:00:00 10.9 5 Sudoeste 14 Sur 0 -- -- 64
2020-02-09 17:00:00 11.8 9 Sudoeste 17 Sudoeste 0 -- -- 58
2020-02-09 16:00:00 12.1 8 Sudoeste 20 Sudoeste 0 -- -- 56
2020-02-09 15:00:00 12.9 7 Sur 16 Sur 0 -- -- 55
2020-02-09 14:00:00 13.1 6 Sudoeste 15 Sur 0 -- -- 54
2020-02-09 13:00:00 12.4 9 Sudoeste 22 Sudoeste 0 -- -- 60
2020-02-09 12:00:00 11.2 8 Sudoeste 15 Sudoeste 0 -- -- 63
2020-02-09 11:00:00 7.4 4 Este 7 Nordeste 0 -- -- 83
2020-02-09 10:00:00 3.9 4 Este 9 Noroeste 0 -- -- 97
2020-02-09 09:00:00 2.3 0 Calma 6 Oeste 0 -- -- 96
2020-02-09 08:00:00 2 5 Sudoeste 8 Sudoeste 0 -- -- 96
2020-02-09 07:00:00 2.5 4 Norte 13 Este 0 -- -- 96
2020-02-09 06:00:00 2.7 3 Nordeste 6 Oeste 0 -- -- 96
2020-02-09 05:00:00 2.3 0 Calma 5 Este 0 -- -- 96
2020-02-09 04:00:00 2 0 Calma 8 Noroeste 0 -- -- 95
2020-02-09 03:00:00 2.7 2 Noroeste 7 Oeste 0 -- -- 94
2020-02-09 02:00:00 4.1 0 Calma 8 Sudoeste 0 -- -- 92
2020-02-09 01:00:00 5.4 3 Sur 7 Nordeste 0 -- -- 91
2020-02-09 00:00:00 5.9 3 Noroeste 5 Norte 0 -- -- 91
2020-02-08 23:00:00 6.5 3 Noroeste 5 Norte 0 -- -- 89
2020-02-08 22:00:00 6.7 3 Oeste 4 Noroeste 0 -- -- 88
2020-02-08 21:00:00 7.1 2 Este 7 Noroeste 0 -- -- 86
2020-02-08 20:00:00 7.3 4 Oeste 9 Oeste 0 -- -- 85
2020-02-08 19:00:00 7.9 0 Calma 4 Noroeste 0 -- -- 80
2020-02-08 18:00:00 8.8 0 Calma 8 Noroeste 0 -- -- 74
2020-02-08 17:00:00 9.2 4 Noroeste 21 Noroeste 0 -- -- 69
2020-02-08 16:00:00 10.1 8 Oeste 21 Oeste 0 -- -- 64
2020-02-08 15:00:00 11.3 5 Oeste 19 Oeste 0 -- -- 61
2020-02-08 14:00:00 12.1 11 Oeste 25 Noroeste 0 -- -- 57
2020-02-08 13:00:00 11.4 9 Noroeste 21 Noroeste 0 -- -- 58
2020-02-08 12:00:00 8.7 5 Sur 13 Sudoeste 0 -- -- 69
2020-02-08 11:00:00 3.8 2 Sur 8 Norte 0 -- -- 85
2020-02-08 10:00:00 0.2 2 Nordeste 6 Oeste 0 -- -- 93
2020-02-08 09:00:00 -1.9 4 Sudoeste 8 Sudoeste 0 -- -- 94
2020-02-08 08:00:00 -2.3 0 Calma 5 Noroeste 0 -- -- 95
2020-02-08 07:00:00 -2.6 0 Calma 8 Oeste 0 -- -- 94
2020-02-08 06:00:00 -2.3 0 Calma 6 Oeste 0 -- -- 93
2020-02-08 05:00:00 -2.1 0 Calma 6 Oeste 0 -- -- 93
2020-02-08 04:00:00 -1.7 2 Sur 7 Este 0 -- -- 93
2020-02-08 03:00:00 -1.8 3 Norte 5 Noroeste 0 -- -- 92
2020-02-08 02:00:00 -1.3 4 Norte 8 Nordeste 0 -- -- 92
2020-02-08 01:00:00 -0.7 0 Calma 6 Oeste 0 -- -- 91
2020-02-08 00:00:00 -0.2 3 Norte 6 Nordeste 0 -- -- 89
2020-02-07 23:00:00 0.8 0 Calma 6 Este 0 -- -- 90
2020-02-07 22:00:00 2.2 0 Calma 4 Sudoeste 0 -- -- 84
2020-02-07 21:00:00 3.2 2 Sudoeste 5 Sudoeste 0 -- -- 81
2020-02-07 20:00:00 4.9 0 Calma 6 Noroeste 0 -- -- 76
2020-02-07 19:00:00 7 2 Nordeste 7 Sudoeste 0 -- -- 68
2020-02-07 18:00:00 9.9 4 Sudoeste 13 Sudoeste 0 -- -- 57
2020-02-07 17:00:00 12.4 7 Sudoeste 15 Sudoeste 0 -- -- 47
2020-02-07 16:00:00 13.5 7 Sur 16 Sudoeste 0 -- -- 39
2020-02-07 15:00:00 14.1 8 Sur 16 Sudoeste 0 -- -- 32
2020-02-07 14:00:00 13.7 5 Sur 12 Sur 0 -- -- 31
2020-02-07 13:00:00 12 6 Sudoeste 10 Sudoeste 0 -- -- 29
2020-02-07 12:00:00 8 2 Sudeste 6 Sudeste 0 -- -- 41
2020-02-07 11:00:00 4 0 Calma 5 Este 0 -- -- 65
2020-02-07 10:00:00 0.6 0 Calma 4 Nordeste 0 -- -- 82
2020-02-07 09:00:00 -1.9 2 Este 4 Sudoeste 0 -- -- 85
2020-02-07 08:00:00 -2.4 0 Calma 4 Sudoeste 0 -- -- 86
2020-02-07 07:00:00 -2.2 0 Calma 3 Sudoeste 0 -- -- 83
2020-02-07 06:00:00 -2 0 Calma 3 Sudoeste 0 -- -- 83
2020-02-07 05:00:00 -1.8 0 Calma 4 Este 0 -- -- 81
2020-02-07 04:00:00 -1.4 0 Calma 3 Sur 0 -- -- 81
2020-02-07 03:00:00 -1 0 Calma 4 Este 0 -- -- 80
2020-02-07 02:00:00 -0.7 0 Calma 3 Sudoeste 0 -- -- 81
2020-02-07 01:00:00 -0.4 0 Calma 4 Este 0 -- -- 78
2020-02-07 00:00:00 0.3 0 Calma 4 Sudoeste 0 -- -- 76
2020-02-06 23:00:00 0.3 2 Oeste 4 Sudoeste 0 -- -- 75
2020-02-06 22:00:00 1.1 0 Calma 3 Sur 0 -- -- 69
2020-02-06 21:00:00 2.3 0 Calma 5 Nordeste 0 -- -- 63
2020-02-06 20:00:00 4.6 2 Nordeste 5 Noroeste 0 -- -- 55
2020-02-06 19:00:00 7 0 Calma 9 Sudoeste 0 -- -- 44
2020-02-06 18:00:00 10.7 4 Sudoeste 22 Sudoeste 0 -- -- 31
2020-02-06 17:00:00 13.6 11 Sudoeste 32 Sur 0 -- -- 24
2020-02-06 16:00:00 14.8 15 Sudoeste 32 Sudoeste 0 -- -- 18
2020-02-06 15:00:00 14.8 17 Sudoeste 31 Sur 0 -- -- 20
2020-02-06 14:00:00 14.8 22 Sudoeste 38 Sudoeste 0 -- -- 16
2020-02-06 13:00:00 14.5 17 Sur 37 Sudoeste 0 -- -- 14
2020-02-06 12:00:00 11.6 9 Sudoeste 17 Sudoeste 0 -- -- 32
2020-02-06 11:00:00 4 2 Este 6 Sudeste 0 -- -- 66
2020-02-06 10:00:00 0.1 0 Calma 4 Este 0 -- -- 83
2020-02-06 09:00:00 -4 0 Calma 4 Sudoeste 0 -- -- 85
2020-02-06 08:00:00 -3.9 0 Calma 3 Nordeste 0 -- -- 86
2020-02-06 07:00:00 -3.7 0 Calma 5 Oeste 0 -- -- 86
2020-02-06 06:00:00 -3.5 0 Calma 6 Sudoeste 0 -- -- 87
2020-02-06 05:00:00 -3 4 Sudoeste 6 Sudoeste 0 -- -- 88
2020-02-06 04:00:00 -3 0 Calma 6 Sudoeste 0 -- -- 89
2020-02-06 03:00:00 -2.6 3 Sudoeste 5 Sudoeste 0 -- -- 89
2020-02-06 02:00:00 -2.2 0 Calma 5 Oeste 0 -- -- 88
2020-02-06 01:00:00 -1.6 2 Sudoeste 4 Sur 0 -- -- 88
2020-02-06 00:00:00 -1.1 0 Calma 4 Este 0 -- -- 86
2020-02-05 23:00:00 -0.1 0 Calma 4 Noroeste 0 -- -- 84
2020-02-05 22:00:00 0.7 2 Oeste 6 Sudoeste 0 -- -- 79
2020-02-05 21:00:00 2.1 3 Sudoeste 6 Sudoeste 0 -- -- 72
2020-02-05 20:00:00 3.6 2 Sudoeste 5 Sudoeste 0 -- -- 69
2020-02-05 19:00:00 5.8 2 Sur 8 Norte 0 -- -- 63
2020-02-05 18:00:00 8.6 3 Este 8 Sudoeste 0 -- -- 49
2020-02-05 17:00:00 12.6 6 Sudoeste 15 Sudoeste 0 -- -- 36
2020-02-05 16:00:00 13.8 5 Sudoeste 14 Sudoeste 0 -- -- 34
2020-02-05 15:00:00 13.3 5 Sur 14 Sur 0 -- -- 32
2020-02-05 14:00:00 11.9 5 Sudeste 11 Sudeste 0 -- -- 31
2020-02-05 13:00:00 10 4 Sur 9 Nordeste 0 -- -- 35
2020-02-05 12:00:00 6.5 5 Nordeste 9 Nordeste 0 -- -- 50
2020-02-05 11:00:00 3.2 4 Sudeste 12 Nordeste 0 -- -- 59
2020-02-05 10:00:00 -0.4 3 Nordeste 8 Nordeste 0 -- -- 78
2020-02-05 09:00:00 -3.3 2 Sudoeste 4 Sudoeste 0 -- -- 86
2020-02-05 08:00:00 -3.4 0 Calma 4 Noroeste 0 -- -- 84
2020-02-05 07:00:00 -3 2 Oeste 4 Sur 0 -- -- 82
2020-02-05 06:00:00 -2.3 0 Calma 8 Sur 0 -- -- 78
2020-02-05 05:00:00 -1.1 4 Sudoeste 12 Sudoeste 0 -- -- 72
2020-02-05 04:00:00 1 7 Sur 19 Norte 0 -- -- 61
2020-02-05 03:00:00 3.9 13 Nordeste 42 Nordeste 0 -- -- 47
2020-02-05 02:00:00 4.6 18 Norte 58 Nordeste 0 -- -- 45
2020-02-05 01:00:00 5.1 31 Nordeste 65 Nordeste 0 -- -- 44
2020-02-05 00:00:00 5.7 24 Norte 54 Nordeste 0 -- -- 39
2020-02-04 23:00:00 6.4 23 Norte 76 Nordeste 0 -- -- 34
2020-02-04 22:00:00 6 31 Norte 71 Nordeste 0 -- -- 47
2020-02-04 21:00:00 6.3 31 Norte 75 Nordeste 0 -- -- 48
2020-02-04 20:00:00 6.5 33 Norte 67 Nordeste 0 -- -- 53
2020-02-04 19:00:00 6.8 28 Norte 68 Norte 0 -- -- 58
2020-02-04 18:00:00 7.7 33 Nordeste 73 Nordeste 0 -- -- 45
2020-02-04 12:00:00 13.1 15 Norte 35 Nordeste 0 -- -- 57
2020-02-04 11:00:00 13.4 13 Norte 42 Nordeste 0 -- -- 58
2020-02-04 10:00:00 13.1 13 Noroeste 31 Noroeste 0 -- -- 61
2020-02-04 09:00:00 12.2 13 Noroeste 38 Noroeste 0 -- -- 62
2020-02-04 08:00:00 12 18 Noroeste 36 Noroeste 0 -- -- 61
2020-02-04 07:00:00 12.1 18 Noroeste 35 Noroeste 0 -- -- 62
2020-02-04 06:00:00 12.4 16 Noroeste 40 Noroeste 0 -- -- 61
2020-02-04 05:00:00 12.6 12 Noroeste 31 Nordeste 0 -- -- 62
2020-02-04 04:00:00 13.2 16 Noroeste 39 Noroeste 0 -- -- 57
2020-02-04 03:00:00 9.8 12 Norte 33 Norte 0 -- -- 63
2020-02-04 02:00:00 4 0 Calma 5 Sudoeste 0 -- -- 89
2020-02-04 01:00:00 4.1 2 Noroeste 6 Nordeste 0 -- -- 89
2020-02-04 00:00:00 4.8 3 Oeste 12 Oeste 0 -- -- 86
2020-02-03 23:00:00 5.3 5 Noroeste 10 Oeste 0 -- -- 86
2020-02-03 22:00:00 6.2 3 Oeste 9 Oeste 0 -- -- 82
2020-02-03 21:00:00 7 4 Noroeste 9 Noroeste 0 -- -- 80
2020-02-03 20:00:00 8.9 0 Calma 4 Nordeste 0 -- -- 75
2020-02-03 19:00:00 11 3 Sudeste 6 Sur 0 -- -- 70
2020-02-03 18:00:00 14.7 0 Calma 5 Nordeste 0 -- -- 56
2020-02-03 17:00:00 18.7 4 Sudoeste 9 Sudoeste 0 -- -- 40
2020-02-03 16:00:00 19.6 6 Sudoeste 12 Sudoeste 0 -- -- 36
2020-02-03 15:00:00 19.3 6 Sur 13 Sur 0 -- -- 42
2020-02-03 14:00:00 18 4 Sudoeste 9 Sur 0 -- -- 48
2020-02-03 13:00:00 15 2 Este 5 Este 0 -- -- 61
2020-02-03 12:00:00 11.9 2 Sudeste 5 Sudoeste 0 -- -- 73
2020-02-03 11:00:00 7.8 0 Calma 5 Sudoeste 0 -- -- 92
2020-02-03 10:00:00 4 3 Sudeste 8 Oeste 0 -- -- 98
2020-02-03 09:00:00 2.1 3 Sudoeste 5 Sudoeste 0 -- -- 97
2020-02-03 08:00:00 2 2 Sudoeste 6 Oeste 0 -- -- 97
2020-02-03 07:00:00 2 2 Sudoeste 8 Oeste 0 -- -- 97
2020-02-03 06:00:00 2.2 2 Oeste 5 Nordeste 0 -- -- 97
2020-02-03 05:00:00 2.8 2 Oeste 6 Sudoeste 0 -- -- 97
2020-02-03 04:00:00 3 0 Calma 6 Sudoeste 0 -- -- 96
2020-02-03 03:00:00 3.8 0 Calma 5 Sudoeste 0 -- -- 96
2020-02-03 02:00:00 4.4 0 Calma 4 Sudoeste 0 -- -- 96
2020-02-03 01:00:00 5.3 0 Calma 4 Nordeste 0 -- -- 95
2020-02-03 00:00:00 6.5 2 Oeste 5 Sur 0 -- -- 94
2020-02-02 23:00:00 7.4 3 Sudoeste 4 Norte 0 -- -- 94
2020-02-02 22:00:00 8.2 0 Calma 5 Nordeste 0 -- -- 94
2020-02-02 21:00:00 9.3 3 Norte 8 Noroeste 0 -- -- 93
2020-02-02 20:00:00 10.4 2 Norte 4 Nordeste 0 -- -- 89
2020-02-02 19:00:00 12.1 0 Calma 7 Oeste 0 -- -- 83
2020-02-02 18:00:00 14.7 2 Sudoeste 9 Sudoeste 0 -- -- 73
2020-02-02 17:00:00 17.6 5 Sudoeste 15 Sudoeste 0 -- -- 64
2020-02-02 16:00:00 18.7 6 Sur 13 Sudoeste 0 -- -- 61
2020-02-02 15:00:00 18.4 5 Sur 16 Sudoeste 0 -- -- 60
2020-02-02 14:00:00 17.6 5 Sur 11 Sur 0 -- -- 62
2020-02-02 13:00:00 16.8 5 Sur 12 Sur 0 -- -- 66
2020-02-02 12:00:00 15.1 4 Sur 6 Sur 0 -- -- 70
2020-02-02 11:00:00 11.6 4 Este 8 Sudoeste 0 -- -- 80
2020-02-02 10:00:00 9.3 5 Nordeste 12 Nordeste 0 -- -- 85
2020-02-02 09:00:00 7.5 0 Calma 12 Norte 0 -- -- 91
2020-02-02 08:00:00 7.8 3 Sudoeste 20 Norte 0 -- -- 90
2020-02-02 07:00:00 7.6 6 Norte 15 Norte 0 -- -- 97
2020-02-02 06:00:00 6.7 3 Este 9 Norte 0 -- -- 95
2020-02-02 05:00:00 6.7 0 Calma 6 Nordeste 0 -- -- 96
2020-02-02 04:00:00 6.7 0 Calma 7 Noroeste 0 -- -- 96
2020-02-02 03:00:00 6.5 0 Calma 6 Nordeste 0 -- -- 96
2020-02-02 02:00:00 6.1 2 Oeste 5 Noroeste 0 -- -- 96
2020-02-02 01:00:00 5.8 2 Nordeste 7 Oeste 0 -- -- 95
2020-02-02 00:00:00 6.1 3 Oeste 9 Oeste 0 -- -- 94
2020-02-01 23:00:00 6.3 3 Sudoeste 8 Oeste 0 -- -- 93
2020-02-01 22:00:00 6.8 0 Calma 6 Nordeste 0 -- -- 91
2020-02-01 21:00:00 7.8 0 Calma 7 Nordeste 0 -- -- 90
2020-02-01 20:00:00 9.4 0 Calma 13 Norte 0 -- -- 84
2020-02-01 19:00:00 11.4 3 Este 12 Nordeste 0 -- -- 77
2020-02-01 18:00:00 13.5 6 Oeste 17 Oeste 0 -- -- 71
2020-02-01 17:00:00 15.5 6 Oeste 17 Sudoeste 0 -- -- 63
2020-02-01 16:00:00 16.4 9 Oeste 22 Oeste 0 -- -- 59
2020-02-01 15:00:00 16.1 9 Norte 24 Noroeste 0 -- -- 54
2020-02-01 14:00:00 15 9 Noroeste 21 Norte 0 -- -- 61
2020-02-01 13:00:00 14.9 13 Noroeste 20 Noroeste 0 -- -- 63
2020-02-01 12:00:00 12.9 6 Norte 15 Norte 0 -- -- 84
2020-02-01 11:00:00 9.5 6 Nordeste 13 Nordeste 0.2 -- -- 99
2020-02-01 10:00:00 6.9 2 Noroeste 9 Oeste 0.2 -- -- 98
2020-02-01 09:00:00 6 3 Sur 6 Oeste 0.2 -- -- 98
2020-02-01 08:00:00 5.9 3 Sudoeste 4 Noroeste 1.2 -- -- 98
2020-02-01 07:00:00 5.7 0 Calma 6 Oeste 1.2 -- -- 98
2020-02-01 06:00:00 5.4 0 Calma 8 Nordeste 2.4 -- -- 98
2020-02-01 05:00:00 4.8 3 Sudoeste 7 Norte 2 -- -- 97
2020-02-01 04:00:00 4.3 4 Norte 9 Sur 0 -- -- 97
2020-02-01 03:00:00 3.6 6 Noroeste 12 Noroeste 0 -- -- 98
2020-02-01 02:00:00 3 2 Sudeste 7 Noroeste 0 -- -- 97
2020-02-01 01:00:00 3.1 2 Nordeste 5 Sudoeste 0 -- -- 96
2020-02-01 00:00:00 3.6 2 Nordeste 5 Noroeste 0 -- -- 94
2020-01-31 23:00:00 4.4 3 Nordeste 5 Nordeste -- -- -- 93
2020-01-31 22:00:00 5.2 0 Calma 6 Nordeste 0 -- -- 93
2020-01-31 21:00:00 6.2 3 Sudoeste 6 Nordeste 0 -- -- 93
2020-01-31 20:00:00 7.3 2 Sudoeste 6 Nordeste 0 -- -- 89
2020-01-31 19:00:00 9.1 0 Calma 5 Sudoeste 0 -- -- 84
2020-01-31 18:00:00 12.2 3 Oeste 11 Sudoeste 0 -- -- 70
2020-01-31 17:00:00 15.1 6 Sudoeste 17 Sudoeste 0 -- -- 61
2020-01-31 16:00:00 16.3 6 Sudoeste 21 Sur 0 -- -- 57
2020-01-31 15:00:00 16 8 Sur 21 Sur 0 -- -- 61
2020-01-31 14:00:00 15.6 8 Sudoeste 15 Sudoeste 0 -- -- 64
2020-01-31 13:00:00 13.5 7 Sur 13 Sudoeste 0 -- -- 78
2020-01-31 12:00:00 10.4 4 Sudoeste 9 Sudoeste 0 -- -- 93
2020-01-31 11:00:00 6.4 2 Norte 6 Nordeste 0 -- -- 98
2020-01-31 10:00:00 5.7 2 Oeste 5 Sudoeste 0 -- -- 98
2020-01-31 09:00:00 4.7 4 Nordeste 7 Noroeste 0.2 -- -- 98
2020-01-31 08:00:00 4.7 0 Calma 6 Noroeste 0 -- -- 98
2020-01-31 07:00:00 4.9 2 Sudeste 6 Oeste 0 -- -- 98
2020-01-31 06:00:00 5.4 2 Noroeste 10 Noroeste 0 -- -- 97
2020-01-31 05:00:00 5.8 3 Oeste 6 Oeste 0 -- -- 97
2020-01-31 04:00:00 6.7 3 Sur 10 Norte 0 -- -- 97
2020-01-31 03:00:00 6.7 3 Norte 6 Noroeste 0 -- -- 97
2020-01-31 02:00:00 7 3 Sudoeste 5 Noroeste 0 -- -- 96
2020-01-31 01:00:00 7.2 0 Calma 6 Norte 0 -- -- 96
2020-01-31 00:00:00 7.3 2 Este 7 Noroeste 0.2 -- -- 95
2020-01-30 23:00:00 7.4 4 Noroeste 7 Noroeste 0 -- -- 95
2020-01-30 22:00:00 7.6 0 Calma 6 Norte 0 -- -- 93
2020-01-30 21:00:00 8.1 0 Calma 7 Noroeste 0 -- -- 93
2020-01-30 20:00:00 8.3 5 Noroeste 9 Noroeste 0 -- -- 92
2020-01-30 19:00:00 8.9 2 Noroeste 6 Noroeste 0 -- -- 90
2020-01-30 18:00:00 10.1 3 Nordeste 7 Nordeste 0 -- -- 87
2020-01-30 17:00:00 11 2 Noroeste 7 Sur 0 -- -- 83
2020-01-30 16:00:00 10.8 2 Sur 5 Este 0 -- -- 84
2020-01-30 15:00:00 10.5 3 Oeste 10 Oeste 0 -- -- 86
2020-01-30 14:00:00 10.5 0 Calma 11 Sudoeste 0 -- -- 86
2020-01-30 13:00:00 10.1 2 Sur 4 Sudeste 0 -- -- 96
2020-01-30 12:00:00 9 4 Sudeste 8 Noroeste 0 -- -- 98
2020-01-30 11:00:00 8 4 Noroeste 10 Oeste 0 -- -- 98
2020-01-30 10:00:00 7.3 3 Oeste 6 Sudeste 0 -- -- 98
2020-01-30 09:00:00 7.2 4 Noroeste 6 Nordeste 0.2 -- -- 98
2020-01-30 08:00:00 7.1 2 Norte 6 Este 0.4 -- -- 98
2020-01-30 07:00:00 7.3 3 Norte 7 Nordeste 2.2 -- -- 98
2020-01-30 06:00:00 7.2 0 Calma 4 Nordeste 1.4 -- -- 98
2020-01-30 05:00:00 7.1 0 Calma 5 Oeste 1.2 -- -- 97
2020-01-30 04:00:00 7.2 0 Calma 4 Sudoeste 1 -- -- 97
2020-01-30 03:00:00 7.2 0 Calma 2 Oeste 1.2 -- -- 97
2020-01-30 02:00:00 7.3 2 Norte 4 Nordeste 1.4 -- -- 97
2020-01-30 01:00:00 7.3 0 Calma 3 Nordeste 1.6 -- -- 97
2020-01-30 00:00:00 7.4 0 Calma 5 Oeste 1.2 -- -- 96
2020-01-29 23:00:00 7.6 0 Calma 3 Nordeste 1.8 -- -- 96
2020-01-29 22:00:00 7.6 3 Nordeste 5 Oeste 0.4 -- -- 96
2020-01-29 21:00:00 7.8 0 Calma 5 Nordeste 1 -- -- 95
2020-01-29 20:00:00 8.3 3 Nordeste 4 Este 0.2 -- -- 92
2020-01-29 19:00:00 8.9 0 Calma 6 Oeste 0 -- -- 91
2020-01-29 18:00:00 9.6 3 Noroeste 6 Nordeste 0 -- -- 89
2020-01-29 17:00:00 9.8 4 Nordeste 7 Noroeste 0 -- -- 89
2020-01-29 16:00:00 9.3 5 Nordeste 10 Nordeste 0 -- -- 93
2020-01-29 15:00:00 8.7 4 Nordeste 7 Nordeste 0 -- -- 92
2020-01-29 14:00:00 8.4 5 Norte 9 Norte 0 -- -- 88
2020-01-29 13:00:00 8.3 3 Nordeste 8 Nordeste 0 -- -- 86
2020-01-29 12:00:00 5.9 4 Este 9 Este 0 -- -- 88
2020-01-29 11:00:00 3.3 3 Sudoeste 6 Sudoeste 0 -- -- 92
2020-01-29 10:00:00 1.1 2 Nordeste 6 Sudoeste 0 -- -- 96
2020-01-29 09:00:00 0.1 2 Sur 5 Nordeste 0 -- -- 94
2020-01-29 08:00:00 0.3 3 Sudoeste 10 Nordeste 0 -- -- 94
2020-01-29 07:00:00 0.5 2 Oeste 10 Nordeste 0 -- -- 96
2020-01-29 06:00:00 0.2 3 Noroeste 7 Oeste 0 -- -- 96
2020-01-29 05:00:00 -0.2 3 Nordeste 10 Nordeste 0 -- -- 95
2020-01-29 04:00:00 -0.4 4 Sudoeste 12 Norte 0 -- -- 95
2020-01-29 03:00:00 -0.9 0 Calma 9 Oeste 0 -- -- 96
2020-01-29 02:00:00 -1.4 3 Norte 10 Nordeste 0 -- -- 96
2020-01-29 01:00:00 -1.3 2 Noroeste 9 Oeste 0 -- -- 94
2020-01-29 00:00:00 -0.6 3 Sudoeste 9 Oeste 0 -- -- 94
2020-01-28 23:00:00 0 0 Calma 8 Oeste 0 -- -- 92
2020-01-28 22:00:00 0.8 3 Norte 7 Noroeste 0 -- -- 89
2020-01-28 21:00:00 2.1 0 Calma 5 Sur 0 -- -- 88
2020-01-28 20:00:00 3.7 0 Calma 12 Norte 0 -- -- 84
2020-01-28 19:00:00 5 3 Este 10 Norte 0 -- -- 78
2020-01-28 18:00:00 7.5 3 Este 15 Oeste 0 -- -- 71
2020-01-28 17:00:00 10.6 5 Oeste 17 Oeste 0 -- -- 56
2020-01-28 16:00:00 11.2 5 Norte 23 Noroeste 0 -- -- 52
2020-01-28 15:00:00 11.3 6 Norte 24 Noroeste 0 -- -- 53
2020-01-28 14:00:00 10.5 10 Oeste 21 Oeste 0 -- -- 58
2020-01-28 13:00:00 10.6 13 Oeste 24 Sudoeste 0 -- -- 61
2020-01-28 12:00:00 10.1 7 Oeste 22 Oeste 0 -- -- 77
2020-01-28 11:00:00 6.9 3 Sur 8 Nordeste 0 -- -- 98
2020-01-28 10:00:00 5.1 3 Nordeste 6 Nordeste 0 -- -- 98
2020-01-28 09:00:00 4.4 2 Noroeste 7 Noroeste 0 -- -- 98
2020-01-28 08:00:00 4.4 0 Calma 6 Noroeste 0 -- -- 97
2020-01-28 07:00:00 4.4 0 Calma 6 Nordeste 0 -- -- 97
2020-01-28 06:00:00 4.4 3 Noroeste 5 Nordeste 0 -- -- 97
2020-01-28 05:00:00 4.4 3 Sudoeste 7 Norte 0.4 -- -- 97
2020-01-28 04:00:00 4.3 0 Calma 9 Oeste 0.2 -- -- 97
2020-01-28 03:00:00 4.3 3 Sur 9 Noroeste 0 -- -- 97
2020-01-28 02:00:00 4.2 3 Norte 4 Nordeste 0.2 -- -- 97
2020-01-28 01:00:00 4.2 4 Nordeste 9 Oeste 0.4 -- -- 96
2020-01-28 00:00:00 4.1 4 Oeste 15 Noroeste 0 -- -- 96
2020-01-27 23:00:00 4.1 0 Calma 5 Este 0 -- -- 96
2020-01-27 22:00:00 4 2 Nordeste 11 Noroeste 0 -- -- 96
2020-01-27 21:00:00 4 4 Noroeste 9 Noroeste 0.2 -- -- 96
2020-01-27 20:00:00 4.2 4 Noroeste 8 Noroeste 0 -- -- 95
2020-01-27 19:00:00 4.1 2 Nordeste 10 Sudoeste 0.2 -- -- 94
2020-01-27 18:00:00 4.8 3 Norte 16 Sudoeste 0.2 -- -- 91
2020-01-27 17:00:00 5.3 11 Sudoeste 18 Sudoeste 1.4 -- -- 88
2020-01-27 16:00:00 6.4 6 Sudoeste 18 Sudoeste 0.4 -- -- 82
2020-01-27 15:00:00 6.9 8 Sudoeste 17 Sudoeste 0 -- -- 74
2020-01-27 14:00:00 5.9 2 Este 5 Nordeste 0 -- -- 85
2020-01-27 13:00:00 3.7 0 Calma 5 Sudoeste 0 -- -- 96
2020-01-27 12:00:00 2.4 4 Noroeste 6 Noroeste 0 -- -- 98
2020-01-27 11:00:00 0.5 0 Calma 5 Nordeste 0 -- -- 97
2020-01-27 10:00:00 -1.1 0 Calma 5 Oeste 0 -- -- 97
2020-01-27 09:00:00 -2 0 Calma 7 Noroeste 0 -- -- 97
2020-01-27 08:00:00 -2 0 Calma 9 Noroeste 0 -- -- 97
2020-01-27 07:00:00 -2.1 3 Nordeste 6 Noroeste 0 -- -- 97
2020-01-27 06:00:00 -2.4 0 Calma 6 Nordeste 0 -- -- 97
2020-01-27 05:00:00 -2.4 3 Oeste 6 Nordeste 0 -- -- 97
2020-01-27 04:00:00 -2.4 3 Este 4 Oeste 0 -- -- 96
2020-01-27 03:00:00 -2.2 3 Norte 5 Oeste 0 -- -- 96
2020-01-27 02:00:00 -2 2 Nordeste 6 Noroeste 0 -- -- 96
2020-01-27 01:00:00 -1.2 0 Calma 5 Oeste 0 -- -- 95
2020-01-27 00:00:00 -0.7 0 Calma 7 Nordeste 0 -- -- 95
2020-01-26 23:00:00 0.2 0 Calma 3 Noroeste 0 -- -- 93
2020-01-26 22:00:00 1 0 Calma 4 Oeste 0 -- -- 92
2020-01-26 21:00:00 1.8 0 Calma 5 Nordeste 0 -- -- 91
2020-01-26 20:00:00 3.1 0 Calma 5 Noroeste 0 -- -- 87
2020-01-26 19:00:00 4.9 2 Oeste 9 Sur 0 -- -- 80
2020-01-26 18:00:00 7 6 Oeste 17 Oeste 0 -- -- 69
2020-01-26 17:00:00 8.3 3 Oeste 9 Sudoeste 0 -- -- 69
2020-01-26 16:00:00 8.6 3 Sudeste 11 Sudoeste 0 -- -- 71
2020-01-26 15:00:00 8.4 3 Sudeste 7 Norte 0 -- -- 73
2020-01-26 14:00:00 8.4 4 Noroeste 14 Sudeste 0 -- -- 75
2020-01-26 13:00:00 8.2 7 Sur 14 Sur 0 -- -- 82
2020-01-26 12:00:00 6.1 3 Sur 7 Sur 0 -- -- 89
2020-01-26 11:00:00 5.2 4 Este 6 Este 0 -- -- 95
2020-01-26 10:00:00 3.7 2 Sur 6 Noroeste 0 -- -- 97
2020-01-26 09:00:00 2.6 0 Calma 4 Noroeste 0 -- -- 97
2020-01-26 08:00:00 2.5 3 Sudoeste 4 Sudoeste 0 -- -- 96
2020-01-26 07:00:00 2.6 0 Calma 5 Noroeste 0 -- -- 96
2020-01-26 06:00:00 3 4 Noroeste 6 Noroeste 0.4 -- -- 95
2020-01-26 05:00:00 3.6 0 Calma 8 Sudoeste 0 -- -- 96
2020-01-26 04:00:00 3.7 4 Sudoeste 8 Sur 0 -- -- 96
2020-01-26 03:00:00 3.8 0 Calma 4 Nordeste 0 -- -- 96
2020-01-26 02:00:00 4 3 Oeste 4 Oeste 0 -- -- 96
2020-01-26 01:00:00 4 0 Calma 5 Nordeste 0.2 -- -- 96
2020-01-26 00:00:00 4 2 Nordeste 5 Nordeste 0 -- -- 95
2020-01-25 23:00:00 4.2 0 Calma 5 Nordeste 0.2 -- -- 94
2020-01-25 22:00:00 4.5 3 Sur 9 Noroeste 0.2 -- -- 93
2020-01-25 21:00:00 4.5 0 Calma 6 Norte 0 -- -- 92
2020-01-25 20:00:00 4.9 2 Sudoeste 10 Sudoeste 0 -- -- 91
2020-01-25 19:00:00 5.3 5 Oeste 17 Sudoeste 0.2 -- -- 87
2020-01-25 18:00:00 6.1 8 Sudoeste 22 Sudoeste 0 -- -- 80
2020-01-25 17:00:00 6.4 11 Sudoeste 18 Sudoeste 0 -- -- 80
2020-01-25 16:00:00 6.8 9 Sur 22 Sur 0.2 -- -- 79
2020-01-25 15:00:00 7.1 9 Sur 20 Sur 0.2 -- -- 76
2020-01-25 14:00:00 7.3 11 Sur 36 Sudoeste 0 -- -- 76
2020-01-25 13:00:00 8.4 9 Sur 28 Sudoeste 0 -- -- 67
2020-01-25 12:00:00 7.8 8 Sudoeste 26 Sudoeste 0 -- -- 67
2020-01-25 11:00:00 7 10 Sudoeste 23 Sudoeste 0 -- -- 70
2020-01-25 10:00:00 5.7 8 Sudoeste 14 Sur 0 -- -- 78
2020-01-25 09:00:00 3.7 3 Noroeste 8 Norte 0 -- -- 93
2020-01-25 08:00:00 3 3 Nordeste 6 Este 0 -- -- 94
2020-01-25 07:00:00 3.5 2 Sudoeste 4 Sudoeste 0 -- -- 92
2020-01-25 06:00:00 3.4 2 Nordeste 6 Este 0 -- -- 95
2020-01-25 05:00:00 3.2 3 Norte 7 Este 0 -- -- 96
2020-01-25 04:00:00 3.5 2 Oeste 5 Oeste 0 -- -- 96
2020-01-25 03:00:00 3.3 2 Noroeste 4 Sur 0 -- -- 96
2020-01-25 02:00:00 3.5 0 Calma 5 Noroeste 0 -- -- 96
2020-01-25 01:00:00 3.7 4 Norte 6 Noroeste 0 -- -- 95
2020-01-25 00:00:00 3.9 2 Sudoeste 4 Sudoeste 0 -- -- 94
2020-01-24 23:00:00 4.4 0 Calma 4 Oeste 0 -- -- 93
2020-01-24 22:00:00 4.6 0 Calma 4 Sudoeste 0 -- -- 91
2020-01-24 21:00:00 4.9 0 Calma 3 Nordeste 0 -- -- 89
2020-01-24 20:00:00 5.4 3 Nordeste 6 Nordeste 0 -- -- 86
2020-01-24 19:00:00 6.4 3 Nordeste 6 Noroeste 0 -- -- 82
2020-01-24 18:00:00 7.6 3 Noroeste 12 Sudoeste 0 -- -- 76
2020-01-24 17:00:00 8.8 8 Sudoeste 17 Sudoeste 0 -- -- 66
2020-01-24 16:00:00 9.4 9 Sudoeste 17 Sur 0 -- -- 67
2020-01-24 15:00:00 9.6 7 Sudoeste 22 Sudoeste 0 -- -- 68
2020-01-24 14:00:00 9.4 7 Sudoeste 24 Sudoeste 0 -- -- 69
2020-01-24 13:00:00 10.2 14 Sudoeste 27 Sudoeste 0 -- -- 61
2020-01-24 12:00:00 7.1 2 Este 6 Nordeste 0 -- -- 85
2020-01-24 11:00:00 4.2 0 Calma 5 Sur 0 -- -- 98
2020-01-24 10:00:00 2.9 0 Calma 6 Norte 0 -- -- 98
2020-01-24 09:00:00 2.4 0 Calma 5 Noroeste 0 -- -- 97
2020-01-24 08:00:00 2.3 0 Calma 5 Sudoeste 0 -- -- 97
2020-01-24 07:00:00 2.4 3 Sudoeste 5 Sudoeste 0 -- -- 97
2020-01-24 06:00:00 2.3 3 Noroeste 6 Noroeste 0 -- -- 98
2020-01-24 05:00:00 2.4 0 Calma 6 Noroeste 0 -- -- 98
2020-01-24 04:00:00 2.2 3 Oeste 5 Oeste 0 -- -- 98
2020-01-24 03:00:00 1.7 3 Norte 6 Norte 0 -- -- 98
2020-01-24 02:00:00 1.1 0 Calma 9 Nordeste 0 -- -- 97
2020-01-24 01:00:00 1.5 3 Sudoeste 5 Sudoeste 0 -- -- 97
2020-01-24 00:00:00 1.3 0 Calma 5 Oeste 0 -- -- 97
2020-01-23 23:00:00 1.2 0 Calma 4 Nordeste 0 -- -- 97
2020-01-23 22:00:00 1.2 0 Calma 3 Este 0 -- -- 96
2020-01-23 21:00:00 1.2 0 Calma 5 Sudoeste 0 -- -- 95
2020-01-23 20:00:00 1.6 0 Calma 5 Noroeste 0 -- -- 94
2020-01-23 19:00:00 2.4 0 Calma 4 Noroeste 0 -- -- 94
2020-01-23 18:00:00 3.1 0 Calma 13 Sudoeste 0 -- -- 93
2020-01-23 17:00:00 3.2 7 Sudoeste 22 Sur 0.6 -- -- 91
2020-01-23 16:00:00 3.4 4 Sudeste 21 Sudoeste 1.8 -- -- 92
2020-01-23 15:00:00 4.4 10 Sudoeste 18 Sudoeste 0.8 -- -- 94
2020-01-23 14:00:00 4.3 7 Sudoeste 15 Oeste 0.4 -- -- 94
2020-01-23 13:00:00 4.1 2 Sur 6 Sudoeste 0.2 -- -- 97
2020-01-23 12:00:00 3.1 0 Calma 5 Nordeste 0.2 -- -- 97
2020-01-23 11:00:00 2.2 3 Nordeste 4 Nordeste 0.2 -- -- 97
2020-01-23 10:00:00 1.6 0 Calma 5 Sur 0 -- -- 97
2020-01-23 09:00:00 1.4 3 Nordeste 9 Norte 0.2 -- -- 97
2020-01-23 08:00:00 1.2 2 Oeste 13 Noroeste 2 -- -- 97
2020-01-23 07:00:00 1.1 5 Norte 9 Este 6.2 -- -- 96
2020-01-23 06:00:00 0.9 4 Nordeste 7 Nordeste 2.6 -- -- 96
2020-01-23 05:00:00 0.9 3 Nordeste 10 Norte 1.2 -- -- 96
2020-01-23 04:00:00 0.6 2 Nordeste 8 Noroeste 2.4 -- -- 96
2020-01-23 03:00:00 0.5 4 Sudoeste 6 Nordeste 0.2 -- -- 95
2020-01-23 02:00:00 0.6 3 Sur 10 Noroeste 0.2 -- -- 95
2020-01-23 01:00:00 0.4 0 Calma 3 Norte 3.2 -- -- 94
2020-01-23 00:00:00 0.8 0 Calma 7 Oeste 3.2 -- -- 92
2020-01-22 23:00:00 2.1 6 Sudoeste 12 Sudoeste 2 -- -- 90
2020-01-22 22:00:00 3.6 3 Sudeste 6 Sudoeste 1.8 -- -- 93
2020-01-22 21:00:00 4.1 0 Calma 5 Sur 2 -- -- 94
2020-01-22 20:00:00 4.3 0 Calma 5 Nordeste 1 -- -- 93
2020-01-22 19:00:00 4.8 2 Sur 7 Noroeste 0.2 -- -- 90
2020-01-22 18:00:00 5.2 5 Noroeste 26 Este 0.4 -- -- 88
2020-01-22 17:00:00 8.1 12 Sudeste 24 Sudeste 0.4 -- -- 68
2020-01-22 16:00:00 9.8 4 Sudoeste 26 Sur 0 -- -- 59
2020-01-22 15:00:00 11.3 14 Sudoeste 32 Sudoeste 0 -- -- 56
2020-01-22 14:00:00 11.5 15 Sudoeste 27 Sudoeste 0 -- -- 56
2020-01-22 13:00:00 9.1 6 Nordeste 11 Este 0 -- -- 63
2020-01-22 12:00:00 7.1 2 Este 7 Este 0 -- -- 67
2020-01-22 11:00:00 2.4 0 Calma 4 Este 0 -- -- 87
2020-01-22 10:00:00 1.2 0 Calma 4 Nordeste 0 -- -- 94
2020-01-22 09:00:00 -0.5 0 Calma 4 Noroeste 0 -- -- 94
2020-01-22 08:00:00 -0.3 3 Nordeste 5 Norte 0 -- -- 93
2020-01-22 07:00:00 -0.2 0 Calma 7 Oeste 0 -- -- 92
2020-01-22 06:00:00 0.4 3 Norte 10 Noroeste 0 -- -- 91
2020-01-22 05:00:00 0.3 5 Sudoeste 10 Sudoeste 0 -- -- 92
2020-01-22 04:00:00 0.3 2 Este 8 Noroeste 0 -- -- 90
2020-01-22 03:00:00 0 4 Oeste 13 Norte 0 -- -- 91
2020-01-22 02:00:00 -0.7 4 Norte 13 Sudoeste 0 -- -- 92
2020-01-22 01:00:00 -1.1 3 Nordeste 6 Oeste 0 -- -- 93
2020-01-22 00:00:00 -1.2 0 Calma 6 Nordeste 0 -- -- 92
2020-01-21 23:00:00 -0.9 2 Sudoeste 8 Nordeste 0 -- -- 90
2020-01-21 22:00:00 0.2 3 Sur 11 Norte 0 -- -- 88
2020-01-21 21:00:00 0.2 4 Nordeste 10 Oeste 0 -- -- 87
2020-01-21 20:00:00 0.8 2 Oeste 5 Noroeste 0 -- -- 85
2020-01-21 19:00:00 1.5 3 Nordeste 9 Noroeste 0 -- -- 82
2020-01-21 18:00:00 2.8 2 Sudoeste 8 Sur 0 -- -- 76
2020-01-21 17:00:00 3.6 0 Calma 9 Norte 0 -- -- 72
2020-01-21 16:00:00 3.8 4 Nordeste 7 Nordeste 0 -- -- 70
2020-01-21 15:00:00 3.5 2 Sur 7 Sudoeste 0 -- -- 68
2020-01-21 14:00:00 3.3 2 Sudoeste 9 Norte 0 -- -- 68
2020-01-21 13:00:00 2.7 2 Este 9 Sudoeste 0 -- -- 68
2020-01-21 12:00:00 2.1 3 Sur 14 Oeste 0 -- -- 70
2020-01-21 11:00:00 0.9 3 Este 6 Sudoeste 0 -- -- 71
2020-01-21 10:00:00 -0.5 2 Nordeste 10 Nordeste 0 -- -- 80
2020-01-21 09:00:00 -1.3 3 Sudoeste 10 Oeste 0 -- -- 81
2020-01-21 08:00:00 -1.2 3 Sudeste 10 Oeste 0 -- -- 79
2020-01-21 07:00:00 -1.2 4 Sur 14 Norte 0 -- -- 79
2020-01-21 06:00:00 -2 6 Nordeste 9 Oeste 0 -- -- 83
2020-01-21 05:00:00 -2.2 2 Noroeste 6 Noroeste 0 -- -- 83
2020-01-21 04:00:00 -2.3 0 Calma 6 Este 0 -- -- 82
2020-01-21 03:00:00 -2.4 3 Sudeste 8 Sudoeste 0 -- -- 82
2020-01-21 02:00:00 -2.9 6 Nordeste 9 Nordeste 0 -- -- 84
2020-01-21 01:00:00 -3.2 0 Calma 6 Noroeste 0 -- -- 83
2020-01-21 00:00:00 -3.4 3 Sudoeste 7 Sur 0 -- -- 82
2020-01-20 23:00:00 -3.2 5 Nordeste 7 Nordeste 0 -- -- 80
2020-01-20 22:00:00 -2.8 5 Sudoeste 11 Sudoeste 0 -- -- 76
2020-01-20 21:00:00 -1.2 3 Sur 14 Nordeste 0 -- -- 69
2020-01-20 20:00:00 1.4 9 Norte 36 Nordeste 0 -- -- 53
2020-01-20 19:00:00 1.3 13 Nordeste 33 Nordeste 0 -- -- 52
2020-01-20 18:00:00 2 20 Nordeste 41 Nordeste 0 -- -- 49
2020-01-20 17:00:00 3.4 14 Norte 29 Norte 0 -- -- 42
2020-01-20 16:00:00 4.6 7 Sudoeste 23 Sur 0 -- -- 47
2020-01-20 15:00:00 4.6 6 Sudoeste 17 Noroeste 0 -- -- 45
2020-01-20 14:00:00 4 4 Sur 16 Sudoeste 0 -- -- 42
2020-01-20 13:00:00 3.1 6 Sur 18 Sudoeste 0 -- -- 44
2020-01-20 12:00:00 1.9 6 Sur 20 Sudoeste 0 -- -- 45
2020-01-20 11:00:00 0.9 9 Sur 32 Nordeste 0 -- -- 47
2020-01-20 10:00:00 0.4 23 Nordeste 46 Nordeste 0 -- -- 43
2020-01-20 09:00:00 -0.6 19 Nordeste 46 Nordeste 0 -- -- 48
2020-01-20 08:00:00 -0.5 19 Norte 56 Nordeste 0 -- -- 47
2020-01-20 07:00:00 0.2 24 Norte 67 Nordeste 0 -- -- 41
2020-01-20 06:00:00 1 21 Norte 58 Nordeste 0 -- -- 36
2020-01-20 05:00:00 0.9 25 Norte 62 Nordeste 0 -- -- 38
2020-01-20 04:00:00 0.6 20 Norte 54 Norte 0 -- -- 43
2020-01-20 03:00:00 0.7 20 Norte 48 Nordeste 0 -- -- 42
2020-01-20 02:00:00 1.2 19 Norte 51 Nordeste 0 -- -- 42
2020-01-20 01:00:00 1.6 19 Norte 52 Nordeste 0 -- -- 39
2020-01-20 00:00:00 1.1 19 Norte 64 Nordeste 0 -- -- 46
2020-01-19 23:00:00 1.1 26 Norte 68 Nordeste 0 -- -- 50
2020-01-19 22:00:00 1.2 26 Norte 67 Norte 0 -- -- 51
2020-01-19 21:00:00 1.5 32 Norte 84 Nordeste 0 -- -- 46
2020-01-19 20:00:00 1.6 31 Norte 74 Nordeste 0 -- -- 46
2020-01-19 19:00:00 2.1 35 Norte 78 Norte 0 -- -- 41
2020-01-19 18:00:00 2.5 31 Norte 74 Nordeste 0 -- -- 39
2020-01-19 17:00:00 2.9 32 Norte 82 Nordeste 0 -- -- 44
2020-01-19 16:00:00 4 31 Norte 81 Norte 0 -- -- 44
2020-01-19 15:00:00 5.2 46 Nordeste 86 Norte 0 -- -- 38
2020-01-19 14:00:00 5.8 41 Nordeste 88 Nordeste 0 -- -- 37
2020-01-19 13:00:00 5.6 31 Norte 87 Nordeste 0.2 -- -- 38
2020-01-19 12:00:00 5.4 33 Nordeste 72 Nordeste 0 -- -- 44
2020-01-19 11:00:00 6.4 36 Nordeste 64 Nordeste 0 -- -- 33
2020-01-19 10:00:00 6.1 33 Nordeste 62 Norte 0 -- -- 43
2020-01-19 09:00:00 4.4 24 Norte 68 Nordeste 0 -- -- 61
2020-01-19 08:00:00 5 22 Norte 58 Nordeste 0 -- -- 66
2020-01-19 07:00:00 5.2 23 Norte 44 Nordeste 0 -- -- 67
2020-01-19 06:00:00 4.2 23 Nordeste 41 Nordeste 0 -- -- 76
2020-01-19 05:00:00 1.6 7 Sudoeste 17 Sudoeste 0 -- -- 95
2020-01-19 04:00:00 1.8 3 Oeste 8 Sur 0 -- -- 95
2020-01-19 03:00:00 2 0 Calma 4 Sudoeste 0.2 -- -- 95
2020-01-19 02:00:00 2 3 Sudoeste 6 Sur 0.6 -- -- 94
2020-01-19 01:00:00 2 4 Sudeste 12 Noroeste 3.2 -- -- 92
2020-01-19 00:00:00 2.9 8 Noroeste 20 Noroeste 8 -- -- 91
2020-01-18 23:00:00 3.7 6 Noroeste 12 Norte 2.6 -- -- 91
2020-01-18 22:00:00 3.9 3 Nordeste 12 Sudoeste 0.8 -- -- 88
2020-01-18 21:00:00 5.1 8 Sudoeste 22 Oeste 0.6 -- -- 80
2020-01-18 20:00:00 6.5 8 Sudoeste 24 Oeste 0 -- -- 66
2020-01-18 19:00:00 6.4 9 Sudoeste 21 Sudeste 0 -- -- 70
2020-01-18 18:00:00 7 12 Sudoeste 21 Sudoeste 0 -- -- 66
2020-01-18 17:00:00 8.1 13 Sudoeste 26 Sudoeste 0 -- -- 55
2020-01-18 16:00:00 8.9 12 Sudoeste 26 Sur 0 -- -- 42
2020-01-18 15:00:00 9.1 15 Sudoeste 30 Sudoeste 0 -- -- 42
2020-01-18 14:00:00 8.6 8 Sur 19 Sudoeste 0 -- -- 47
2020-01-18 13:00:00 6.2 5 Sudoeste 12 Sudoeste 0 -- -- 59
2020-01-18 12:00:00 4.2 4 Nordeste 8 Oeste 0 -- -- 73
2020-01-18 11:00:00 2.3 3 Sur 9 Sudoeste 0 -- -- 80
2020-01-18 10:00:00 1.1 3 Este 12 Norte 0 -- -- 84
2020-01-18 09:00:00 -0.3 4 Norte 8 Noroeste 0 -- -- 90
2020-01-18 08:00:00 -0.2 2 Sur 8 Sur 0 -- -- 88
2020-01-18 07:00:00 0 5 Sudoeste 10 Oeste 0 -- -- 87
2020-01-18 06:00:00 -0.3 3 Nordeste 14 Noroeste 0 -- -- 87
2020-01-18 05:00:00 -0.8 6 Noroeste 11 Oeste 0 -- -- 91
2020-01-18 04:00:00 -1.4 4 Oeste 8 Oeste 0 -- -- 90
2020-01-18 03:00:00 -1.1 6 Oeste 12 Oeste 0 -- -- 88
2020-01-18 02:00:00 -0.1 6 Sudoeste 21 Nordeste 0 -- -- 82
2020-01-18 01:00:00 4.4 9 Norte 40 Norte 0 -- -- 55
2020-01-18 00:00:00 4.4 14 Noroeste 36 Norte 0 -- -- 57